Time;durP1;ratioP1;P1;durP2;ratioP2;P2;SDS_P1;SDS_P2;PMS_P1;PMS_P2;Temp;Humidity;BMP_temperature;BMP_pressure;BME280_temperature;BME280_humidity;BME280_pressure;Samples;Min_cycle;Max_cycle;Signal;HPM_P1;HPM_P2
2021/10/22 00:00:16;;;;;;;3.88;1.30;;;;;;;12.40;100.00;96119.19;5021884;28;20551;-52
2021/10/22 00:02:44;;;;;;;4.37;1.40;;;;;;;12.29;100.00;96127.44;5043080;28;20088;-51
2021/10/22 00:05:13;;;;;;;5.55;1.73;;;;;;;12.28;100.00;96125.75;5027047;28;20483;-49
2021/10/22 00:07:43;;;;;;;4.30;1.38;;;;;;;12.16;100.00;96125.25;5035533;28;20112;-53
2021/10/22 00:10:12;;;;;;;3.70;1.45;;;;;;;12.16;100.00;96140.31;5047624;28;20064;-51
2021/10/22 00:12:40;;;;;;;2.85;1.50;;;;;;;12.16;100.00;96143.78;5053811;28;20088;-55
2021/10/22 00:15:10;;;;;;;4.50;1.60;;;;;;;12.12;100.00;96150.38;5039379;28;20073;-52
2021/10/22 00:17:39;;;;;;;4.88;1.55;;;;;;;12.00;100.00;96162.22;5024487;28;20073;-53
2021/10/22 00:20:09;;;;;;;5.15;2.33;;;;;;;11.94;100.00;96160.22;5034513;28;20068;-50
2021/10/22 00:22:38;;;;;;;3.17;1.33;;;;;;;12.11;100.00;96170.69;5049424;28;20477;-49
2021/10/22 00:25:08;;;;;;;4.20;1.50;;;;;;;11.99;100.00;96169.31;5037594;28;20189;-53
2021/10/22 00:27:37;;;;;;;4.32;1.55;;;;;;;12.11;100.00;96169.84;5044448;28;20080;-49
2021/10/22 00:30:06;;;;;;;3.33;1.40;;;;;;;11.94;100.00;96168.13;5036797;28;20537;-51
2021/10/22 00:32:35;;;;;;;2.78;1.58;;;;;;;11.93;100.00;96175.25;5031244;28;20092;-51
2021/10/22 00:35:04;;;;;;;4.57;1.50;;;;;;;11.74;100.00;96176.31;5039560;28;20521;-51
2021/10/22 00:37:33;;;;;;;6.57;1.83;;;;;;;11.85;100.00;96177.88;5038095;28;20073;-49
2021/10/22 00:40:01;;;;;;;2.25;1.50;;;;;;;11.97;100.00;96173.94;5044107;28;20089;-54
2021/10/22 00:42:33;;;;;;;8.00;1.65;;;;;;;11.71;100.00;96179.25;5052293;28;20083;-50
2021/10/22 00:45:02;;;;;;;5.10;1.67;;;;;;;11.35;100.00;96179.41;5015886;28;20073;-51
2021/10/22 00:47:30;;;;;;;3.78;1.55;;;;;;;11.82;100.00;96188.72;5022802;28;20077;-54
2021/10/22 00:49:59;;;;;;;4.00;1.60;;;;;;;11.55;100.00;96182.66;5040495;28;20533;-49
2021/10/22 00:52:29;;;;;;;4.60;2.00;;;;;;;11.54;100.00;96185.47;5049915;28;20080;-54
2021/10/22 00:54:58;;;;;;;4.55;1.80;;;;;;;11.44;100.00;96197.94;5042596;28;20099;-52
2021/10/22 00:57:26;;;;;;;4.07;1.67;;;;;;;11.43;100.00;96183.91;5051073;28;20076;-54
2021/10/22 00:59:56;;;;;;;3.97;1.92;;;;;;;11.49;100.00;96185.91;5048762;28;20069;-48
2021/10/22 01:02:25;;;;;;;5.80;2.10;;;;;;;11.55;100.00;96179.19;5037228;28;20088;-49
2021/10/22 01:04:53;;;;;;;5.57;1.90;;;;;;;11.29;100.00;96181.84;5029833;28;20081;-49
2021/10/22 01:07:22;;;;;;;3.80;1.70;;;;;;;11.31;100.00;96182.50;5023999;28;20065;-51
2021/10/22 01:09:50;;;;;;;3.47;1.60;;;;;;;11.43;100.00;96188.38;5043213;28;20084;-54
2021/10/22 01:12:19;;;;;;;7.70;2.20;;;;;;;11.25;100.00;96185.78;5046982;28;20077;-58
2021/10/22 01:14:48;;;;;;;3.63;1.75;;;;;;;11.34;100.00;96188.31;5043011;28;20065;-50
2021/10/22 01:17:34;;;;;;;3.17;1.73;;;;;;;11.51;100.00;96188.41;5037138;28;20073;-52
2021/10/22 01:20:03;;;;;;;3.78;1.92;;;;;;;11.29;100.00;96184.50;5035734;28;20445;-52
2021/10/22 01:22:33;;;;;;;3.05;1.80;;;;;;;11.34;100.00;96195.41;5033294;28;20069;-52
2021/10/22 01:25:01;;;;;;;4.90;2.20;;;;;;;11.44;100.00;96190.84;5028348;28;20139;-50
2021/10/22 01:27:30;;;;;;;3.58;2.33;;;;;;;11.26;100.00;96190.09;5057234;28;20965;-51
2021/10/22 01:29:58;;;;;;;7.10;2.10;;;;;;;11.05;100.00;96198.34;5024992;28;20083;-50
2021/10/22 01:32:27;;;;;;;4.57;2.25;;;;;;;11.25;100.00;96196.31;5031717;28;20079;-47
2021/10/22 01:34:56;;;;;;;4.22;2.17;;;;;;;11.17;100.00;96205.84;5038416;28;20068;-53
2021/10/22 01:37:24;;;;;;;5.82;2.60;;;;;;;11.25;100.00;96198.97;5037892;28;20080;-51
2021/10/22 01:39:54;;;;;;;3.17;2.30;;;;;;;11.21;100.00;96213.47;5044571;28;20080;-49
2021/10/22 01:42:23;;;;;;;4.88;2.70;;;;;;;11.20;100.00;96199.44;5021941;28;20073;-49
2021/10/22 01:44:52;;;;;;;6.13;2.60;;;;;;;10.95;100.00;96206.38;5031409;28;20084;-55
2021/10/22 01:47:22;;;;;;;5.13;2.33;;;;;;;11.08;100.00;96206.78;5044393;28;20649;-53
2021/10/22 01:49:50;;;;;;;3.88;2.30;;;;;;;11.29;100.00;96216.19;5049660;28;20065;-53
2021/10/22 01:52:19;;;;;;;4.72;2.67;;;;;;;10.93;100.00;96211.78;5041623;28;20069;-50
2021/10/22 01:54:47;;;;;;;5.43;2.22;;;;;;;10.99;100.00;96215.63;5023037;28;20076;-49
2021/10/22 01:57:17;;;;;;;5.15;2.40;;;;;;;10.95;100.00;96218.72;5034896;28;20500;-49
2021/10/22 01:59:46;;;;;;;5.67;2.40;;;;;;;10.87;100.00;96217.69;5047191;28;20524;-55
2021/10/22 02:02:15;;;;;;;6.03;2.17;;;;;;;10.93;100.00;96222.31;5049600;28;20451;-53
2021/10/22 02:04:43;;;;;;;5.28;2.35;;;;;;;10.79;100.00;96222.88;5049706;28;20071;-49
2021/10/22 02:07:12;;;;;;;4.53;2.45;;;;;;;11.07;100.00;96228.88;5049623;28;20085;-55
2021/10/22 02:09:40;;;;;;;3.00;2.30;;;;;;;11.03;100.00;96224.88;5052171;28;20091;-54
2021/10/22 02:12:09;;;;;;;3.63;2.22;;;;;;;10.69;100.00;96232.66;5051602;28;20075;-50
2021/10/22 02:14:39;;;;;;;4.68;2.67;;;;;;;11.03;100.00;96237.25;5049083;28;20075;-50
2021/10/22 02:17:08;;;;;;;4.07;2.10;;;;;;;11.10;100.00;96230.38;5048115;28;20464;-56
2021/10/22 02:19:36;;;;;;;4.90;2.40;;;;;;;11.28;100.00;96230.34;5036470;28;20072;-53
2021/10/22 02:22:05;;;;;;;6.50;2.78;;;;;;;11.19;100.00;96234.75;5016304;28;20592;-54
2021/10/22 02:24:33;;;;;;;3.75;2.25;;;;;;;11.28;100.00;96232.97;5044849;28;20077;-50
2021/10/22 02:27:02;;;;;;;5.95;2.70;;;;;;;11.17;100.00;96234.88;5036738;28;20081;-53
2021/10/22 02:29:30;;;;;;;7.15;2.92;;;;;;;11.34;100.00;96233.19;5048826;28;20532;-56
2021/10/22 02:32:00;;;;;;;5.82;2.22;;;;;;;11.13;100.00;96235.34;5045240;28;20073;-52
2021/10/22 02:34:28;;;;;;;3.05;1.88;;;;;;;11.05;100.00;96235.31;5024126;28;20069;-55
2021/10/22 02:36:57;;;;;;;3.05;2.60;;;;;;;11.28;100.00;96247.00;5023150;28;20591;-52
2021/10/22 02:39:26;;;;;;;3.47;1.80;;;;;;;11.10;100.00;96247.03;5056338;28;20085;-53
2021/10/22 02:41:55;;;;;;;2.33;1.63;;;;;;;11.15;100.00;96242.16;5025540;28;20113;-54
2021/10/22 02:44:23;;;;;;;3.88;1.60;;;;;;;11.00;100.00;96248.94;5046408;28;20069;-54
2021/10/22 02:46:52;;;;;;;2.88;1.55;;;;;;;11.10;100.00;96243.56;5048357;28;20072;-52
2021/10/22 02:49:21;;;;;;;1.63;1.45;;;;;;;11.26;100.00;96248.97;5050312;28;20543;-53
2021/10/22 02:51:50;;;;;;;3.35;1.58;;;;;;;11.12;100.00;96255.63;5047042;28;20077;-53
2021/10/22 02:54:18;;;;;;;2.63;1.40;;;;;;;11.02;100.00;96251.44;5015333;28;20085;-52
2021/10/22 02:56:47;;;;;;;1.40;1.20;;;;;;;10.89;100.00;96255.28;5026990;28;20088;-54
2021/10/22 02:59:15;;;;;;;2.35;1.30;;;;;;;10.85;100.00;96261.00;5017782;28;20073;-52
2021/10/22 03:01:44;;;;;;;1.42;1.20;;;;;;;10.74;100.00;96264.72;5023565;28;20069;-55
2021/10/22 03:04:13;;;;;;;2.20;1.23;;;;;;;10.49;100.00;96265.44;5024030;28;20457;-49
2021/10/22 03:06:43;;;;;;;1.35;1.10;;;;;;;10.66;100.00;96267.25;5044567;28;20084;-56
2021/10/22 03:09:11;;;;;;;1.25;1.10;;;;;;;10.83;100.00;96260.31;5044685;28;20076;-52
2021/10/22 03:11:40;;;;;;;1.23;1.13;;;;;;;10.72;100.00;96266.66;5038760;28;20060;-54
2021/10/22 03:14:08;;;;;;;2.17;1.25;;;;;;;10.49;100.00;96271.53;5028487;28;20076;-50
2021/10/22 03:16:37;;;;;;;2.05;1.50;;;;;;;10.56;100.00;96274.41;5034525;28;20543;-51
2021/10/22 03:19:06;;;;;;;2.10;1.50;;;;;;;10.38;100.00;96280.47;5044147;28;20848;-54
2021/10/22 03:21:34;;;;;;;1.48;1.33;;;;;;;10.37;100.00;96275.34;5030857;28;20088;-55
2021/10/22 03:24:05;;;;;;;3.22;1.40;;;;;;;10.31;100.00;96274.13;5018206;28;20076;-52
2021/10/22 03:26:33;;;;;;;2.42;1.27;;;;;;;10.27;100.00;96275.41;5018778;28;20077;-50
2021/10/22 03:29:02;;;;;;;1.92;1.35;;;;;;;10.45;100.00;96271.00;5023744;28;20077;-53
2021/10/22 03:31:32;;;;;;;2.28;1.42;;;;;;;10.53;100.00;96272.06;5020170;28;20066;-53
2021/10/22 03:34:00;;;;;;;3.00;1.45;;;;;;;10.66;100.00;96275.97;5017923;28;20101;-55
2021/10/22 03:36:29;;;;;;;2.67;1.48;;;;;;;10.46;100.00;96285.03;5027518;28;20462;-54
2021/10/22 03:38:57;;;;;;;2.72;2.05;;;;;;;10.07;100.00;96297.53;5027896;28;20069;-49
2021/10/22 03:41:27;;;;;;;2.17;1.80;;;;;;;10.04;100.00;96296.00;5040783;28;20073;-53
2021/10/22 03:43:55;;;;;;;3.33;1.80;;;;;;;10.19;100.00;96293.75;5047205;28;20064;-53
2021/10/22 03:46:24;;;;;;;2.83;1.75;;;;;;;10.06;100.00;96298.50;5047285;28;20072;-53
2021/10/22 03:48:52;;;;;;;2.35;1.90;;;;;;;10.08;100.00;96307.94;5043440;28;20091;-54
2021/10/22 03:51:21;;;;;;;2.35;1.85;;;;;;;10.12;100.00;96303.22;5029783;28;20077;-51
2021/10/22 03:53:49;;;;;;;3.38;2.00;;;;;;;10.31;100.00;96299.66;5040503;28;20529;-54
2021/10/22 03:56:18;;;;;;;5.95;2.10;;;;;;;10.12;100.00;96304.03;5034029;28;20068;-54
2021/10/22 03:58:48;;;;;;;2.88;2.30;;;;;;;10.04;100.00;96303.09;5037791;28;20653;-55
2021/10/22 04:01:17;;;;;;;2.40;2.20;;;;;;;9.89;100.00;96303.56;5035213;28;20057;-55
2021/10/22 04:03:46;;;;;;;4.15;2.80;;;;;;;9.90;100.00;96304.38;5045689;28;20504;-56
2021/10/22 04:06:14;;;;;;;2.60;2.05;;;;;;;9.85;100.00;96310.09;5046395;28;20309;-52
2021/10/22 04:08:42;;;;;;;5.10;3.03;;;;;;;9.84;100.00;96320.75;5025359;28;20080;-52
2021/10/22 04:11:11;;;;;;;3.35;2.38;;;;;;;9.85;100.00;96311.91;5029075;28;20096;-54
2021/10/22 04:13:39;;;;;;;4.32;2.63;;;;;;;10.02;100.00;96310.31;5028406;28;20069;-49
2021/10/22 04:16:09;;;;;;;3.65;2.90;;;;;;;9.97;100.00;96316.00;5015072;28;20101;-53
2021/10/22 04:18:38;;;;;;;4.93;2.90;;;;;;;9.82;100.00;96320.09;5016451;28;20746;-49
2021/10/22 04:21:06;;;;;;;3.42;2.50;;;;;;;9.71;100.00;96305.28;5027117;28;20065;-52
2021/10/22 04:23:34;;;;;;;5.20;2.75;;;;;;;9.78;100.00;96308.19;5041649;28;20096;-51
2021/10/22 04:26:03;;;;;;;4.68;2.88;;;;;;;9.74;100.00;96311.09;5044630;28;20088;-52
2021/10/22 04:28:31;;;;;;;3.20;2.58;;;;;;;9.64;100.00;96312.09;5038891;28;20675;-51
2021/10/22 04:31:01;;;;;;;4.38;2.70;;;;;;;9.93;100.00;96319.91;5044364;28;20077;-54
2021/10/22 04:33:30;;;;;;;6.65;2.85;;;;;;;9.60;100.00;96310.69;5043715;28;20076;-52
2021/10/22 04:36:00;;;;;;;5.68;2.78;;;;;;;9.63;100.00;96308.63;5015726;28;20521;-52
2021/10/22 04:41:14;;;;;;;4.18;2.80;;;;;;;9.50;100.00;96316.00;5037821;28;20069;-50
2021/10/22 04:43:43;;;;;;;4.72;2.97;;;;;;;9.77;100.00;96311.78;5027242;28;20061;-48
2021/10/22 04:46:11;;;;;;;5.50;3.33;;;;;;;10.01;100.00;96317.38;5016006;28;20077;-51
2021/10/22 04:48:41;;;;;;;6.25;2.72;;;;;;;9.80;100.00;96316.75;5025489;28;20077;-52
2021/10/22 04:51:10;;;;;;;5.38;2.88;;;;;;;9.73;100.00;96317.31;5013918;28;20077;-53
2021/10/22 04:53:38;;;;;;;3.28;2.70;;;;;;;9.83;100.00;96308.56;5019627;28;20076;-51
2021/10/22 04:56:07;;;;;;;5.10;2.83;;;;;;;9.84;100.00;96311.06;5037539;28;20065;-49
2021/10/22 04:58:37;;;;;;;5.32;2.83;;;;;;;9.90;100.00;96313.13;5041569;28;20065;-50
2021/10/22 05:01:06;;;;;;;5.55;3.00;;;;;;;9.95;100.00;96316.16;5019958;28;20085;-52
2021/10/22 05:03:35;;;;;;;6.13;3.00;;;;;;;10.04;100.00;96324.97;5022054;28;20077;-50
2021/10/22 05:06:05;;;;;;;6.75;3.03;;;;;;;10.14;100.00;96317.03;5042368;28;20067;-48
2021/10/22 05:08:34;;;;;;;4.82;3.22;;;;;;;9.83;100.00;96322.56;5051000;28;20079;-51
2021/10/22 05:11:03;;;;;;;3.97;3.13;;;;;;;10.01;100.00;96327.91;5037351;28;20061;-54
2021/10/22 05:13:31;;;;;;;5.32;3.40;;;;;;;10.01;100.00;96330.53;5024294;28;20563;-50
2021/10/22 05:16:00;;;;;;;6.82;3.70;;;;;;;10.09;100.00;96327.22;5045953;28;20073;-52
2021/10/22 05:18:29;;;;;;;5.93;3.30;;;;;;;10.01;100.00;96330.53;5045174;28;20086;-50
2021/10/22 05:20:58;;;;;;;6.05;3.42;;;;;;;9.97;100.00;96324.72;5045297;28;20076;-54
2021/10/22 05:23:27;;;;;;;4.85;3.40;;;;;;;9.78;100.00;96332.72;5040578;28;20623;-50
2021/10/22 05:25:56;;;;;;;9.23;3.60;;;;;;;9.58;100.00;96334.56;5037640;28;20512;-50
2021/10/22 05:28:24;;;;;;;8.77;3.50;;;;;;;9.32;100.00;96339.56;5046166;28;20068;-52
2021/10/22 05:30:53;;;;;;;7.53;3.35;;;;;;;9.45;100.00;96342.72;5044694;28;20089;-50
2021/10/22 05:33:22;;;;;;;9.70;3.30;;;;;;;9.63;100.00;96342.00;5033770;28;20087;-50
2021/10/22 05:35:50;;;;;;;8.52;3.20;;;;;;;9.65;100.00;96342.72;5036207;28;20060;-53
2021/10/22 05:38:19;;;;;;;5.50;3.28;;;;;;;9.23;100.00;96346.50;5043919;28;20052;-52
2021/10/22 05:40:49;;;;;;;7.03;2.80;;;;;;;9.24;100.00;96347.31;5035170;28;20069;-55
2021/10/22 05:43:18;;;;;;;6.28;3.13;;;;;;;9.46;100.00;96347.06;5027755;28;20061;-51
2021/10/22 05:45:47;;;;;;;7.10;2.95;;;;;;;9.49;100.00;96346.75;5044983;28;20061;-50
2021/10/22 05:48:16;;;;;;;8.25;3.30;;;;;;;9.31;100.00;96344.97;5024519;28;20484;-51
2021/10/22 05:50:45;;;;;;;8.13;2.97;;;;;;;9.55;100.00;96344.53;5038138;28;20526;-50
2021/10/22 05:53:13;;;;;;;5.20;2.72;;;;;;;9.77;100.00;96346.00;5048963;28;20064;-48
2021/10/22 05:55:42;;;;;;;9.27;2.90;;;;;;;9.70;100.00;96345.75;5053981;28;20068;-54
2021/10/22 05:58:11;;;;;;;8.93;3.03;;;;;;;9.63;100.00;96337.56;5048363;28;20167;-50
2021/10/22 06:00:41;;;;;;;8.07;2.80;;;;;;;9.90;100.00;96346.53;5046837;28;20607;-54
2021/10/22 06:03:10;;;;;;;8.82;3.00;;;;;;;9.81;100.00;96344.78;5017862;28;20084;-54
2021/10/22 06:05:39;;;;;;;5.82;2.78;;;;;;;9.71;100.00;96352.69;5020642;28;20073;-52
2021/10/22 06:08:09;;;;;;;5.97;2.80;;;;;;;9.70;100.00;96353.63;5038509;28;20069;-51
2021/10/22 06:10:37;;;;;;;6.35;2.85;;;;;;;9.85;100.00;96356.69;5038713;28;20537;-52
2021/10/22 06:13:06;;;;;;;8.65;3.10;;;;;;;9.45;100.00;96358.53;5014245;28;20120;-56
2021/10/22 06:15:36;;;;;;;9.07;3.58;;;;;;;9.42;100.00;96365.88;5047752;28;20100;-54
2021/10/22 06:18:04;;;;;;;10.02;3.35;;;;;;;9.83;100.00;96363.88;5042315;28;20491;-54
2021/10/22 06:20:42;;;;;;;8.90;2.85;;;;;;;9.80;100.00;96366.78;5044557;28;20069;-49
2021/10/22 06:25:57;;;;;;;7.15;2.90;;;;;;;9.69;100.00;96375.69;5048900;28;20068;-53
2021/10/22 06:28:25;;;;;;;11.10;2.90;;;;;;;9.94;100.00;96380.38;5031034;28;20486;-49
2021/10/22 06:30:56;;;;;;;9.10;2.97;;;;;;;9.53;100.00;96384.16;5034676;28;20092;-50
2021/10/22 06:33:24;;;;;;;5.63;2.75;;;;;;;9.92;100.00;96384.09;5050820;28;20099;-47
2021/10/22 06:35:54;;;;;;;11.55;3.10;;;;;;;9.90;100.00;96393.94;5024480;28;20100;-53
2021/10/22 06:38:23;;;;;;;10.03;3.00;;;;;;;9.80;100.00;96393.94;5021063;28;20077;-51
2021/10/22 06:40:54;;;;;;;10.63;2.80;;;;;;;9.57;100.00;96396.09;5036040;28;20075;-53
2021/10/22 06:43:22;;;;;;;;;;;;;;;9.96;100.00;96399.47;5049089;28;20064;-51
2021/10/22 06:45:51;;;;;;;11.32;3.08;;;;;;;9.90;100.00;96400.03;5048136;28;19960;-50
2021/10/22 06:48:21;;;;;;;9.48;3.20;;;;;;;9.96;100.00;96411.81;5045977;28;20075;-47
2021/10/22 06:50:50;;;;;;;7.40;3.03;;;;;;;9.88;100.00;96406.44;5029370;28;20069;-55
2021/10/22 06:53:18;;;;;;;8.43;2.97;;;;;;;9.91;100.00;96403.50;5032012;28;20073;-51
2021/10/22 06:55:46;;;;;;;6.88;2.70;;;;;;;10.08;100.00;96415.97;5036811;28;20069;-50
2021/10/22 06:58:15;;;;;;;6.28;2.70;;;;;;;9.86;100.00;96418.91;5026779;28;20457;-49
2021/10/22 07:00:48;;;;;;;9.55;2.80;;;;;;;10.19;100.00;96417.59;5050699;28;20088;-53
2021/10/22 07:03:20;;;;;;;7.57;2.35;;;;;;;10.00;100.00;96421.09;5047007;28;21317;-50
2021/10/22 07:07:14;;;;;;;7.30;2.60;;;;;;;10.29;100.00;96415.78;5048045;28;20127;-53
2021/10/22 07:08:53;;;;;;;5.68;2.22;;;;;;;10.42;100.00;96415.44;5036449;28;20077;-54
2021/10/22 07:11:22;;;;;;;7.65;2.70;;;;;;;10.42;100.00;96420.72;5052113;28;20100;-52
2021/10/22 07:13:52;;;;;;;11.98;3.40;;;;;;;10.40;100.00;96422.69;5035172;28;20077;-53
2021/10/22 07:16:22;;;;;;;7.25;2.95;;;;;;;10.50;100.00;96426.13;5021746;28;20057;-53
2021/10/22 07:18:50;;;;;;;8.18;2.83;;;;;;;10.58;100.00;96431.50;5023063;28;20733;-52
2021/10/22 07:21:20;;;;;;;4.35;2.20;;;;;;;10.25;100.00;96434.63;5013515;28;20146;-53
2021/10/22 07:23:50;;;;;;;10.02;2.92;;;;;;;10.28;100.00;96445.72;5024553;28;20069;-51
2021/10/22 07:26:20;;;;;;;10.75;2.75;;;;;;;10.44;100.00;96443.34;5045016;28;20060;-54
2021/10/22 07:28:49;;;;;;;5.82;2.50;;;;;;;10.23;100.00;96442.69;5048015;28;20065;-51
2021/10/22 07:31:18;;;;;;;6.28;2.17;;;;;;;10.55;100.00;96442.31;5048836;28;20072;-53
2021/10/22 07:33:47;;;;;;;4.68;2.42;;;;;;;10.70;100.00;96445.31;5049720;28;20108;-53
2021/10/22 07:36:16;;;;;;;6.22;2.72;;;;;;;10.42;100.00;96452.34;5015761;28;20215;-53
2021/10/22 07:38:46;;;;;;;8.85;2.70;;;;;;;10.50;100.00;96460.41;5019549;28;20038;-50
2021/10/22 07:41:16;;;;;;;6.78;2.60;;;;;;;10.58;100.00;96460.50;5022699;28;20065;-56
2021/10/22 07:43:45;;;;;;;7.93;2.87;;;;;;;10.28;100.00;96477.38;5012407;28;20072;-50
2021/10/22 07:46:13;;;;;;;9.50;2.63;;;;;;;10.51;100.00;96475.22;5029028;28;20072;-51
2021/10/22 07:48:43;;;;;;;5.88;2.00;;;;;;;9.74;100.00;96479.63;5030014;28;20092;-50
2021/10/22 07:51:11;;;;;;;7.18;2.40;;;;;;;10.41;100.00;96488.44;5032250;28;20564;-48
2021/10/22 07:53:40;;;;;;;8.35;2.28;;;;;;;10.45;100.00;96481.91;5026850;28;20076;-54
2021/10/22 07:56:10;;;;;;;6.45;2.28;;;;;;;10.08;100.00;96489.72;5016416;28;20069;-49
2021/10/22 07:58:39;;;;;;;5.22;2.30;;;;;;;10.41;100.00;96495.50;5021469;28;20073;-48
2021/10/22 08:01:07;;;;;;;7.13;2.35;;;;;;;10.49;100.00;96500.06;5027229;28;20092;-53
2021/10/22 08:03:36;;;;;;;6.45;2.30;;;;;;;10.47;100.00;96500.22;5029101;28;20092;-53
2021/10/22 08:06:05;;;;;;;6.35;2.30;;;;;;;10.32;100.00;96502.44;5047649;28;20073;-54
2021/10/22 08:08:33;;;;;;;9.60;2.22;;;;;;;10.69;100.00;96515.69;5045102;28;20052;-52
2021/10/22 08:11:02;;;;;;;7.53;2.20;;;;;;;10.21;100.00;96519.22;5045035;28;20072;-51
2021/10/22 08:13:32;;;;;;;5.00;2.42;;;;;;;10.23;100.00;96519.94;5046890;28;20076;-49
2021/10/22 08:16:01;;;;;;;;;;;;;;;10.25;100.00;96525.06;5046933;28;20095;-51
2021/10/22 08:18:29;;;;;;;7.40;2.30;;;;;;;10.04;100.00;96530.47;5037302;28;19960;-54
2021/10/22 08:21:01;;;;;;;11.88;2.70;;;;;;;10.17;100.00;96531.03;5028827;28;20065;-55
2021/10/22 08:23:29;;;;;;;7.75;2.30;;;;;;;10.28;100.00;96527.44;5026155;28;20087;-50
2021/10/22 08:25:58;;;;;;;8.80;2.40;;;;;;;9.92;100.00;96532.44;5034974;28;20556;-57
2021/10/22 08:28:29;;;;;;;10.48;2.40;;;;;;;10.29;100.00;96531.75;5032885;28;20069;-51
2021/10/22 08:31:00;;;;;;;6.82;2.40;;;;;;;10.47;100.00;96526.59;5021417;28;20085;-52
2021/10/22 08:33:28;;;;;;;8.57;2.47;;;;;;;10.14;100.00;96519.94;5041641;28;20085;-54
2021/10/22 08:35:59;;;;;;;7.45;2.60;;;;;;;10.37;100.00;96518.69;5022689;28;20061;-52
2021/10/22 08:38:28;;;;;;;10.70;2.33;;;;;;;10.36;100.00;96532.03;5029914;28;20095;-53
2021/10/22 08:40:57;;;;;;;7.85;2.10;;;;;;;10.36;100.00;96526.75;5042755;28;20084;-56
2021/10/22 08:43:27;;;;;;;10.80;2.28;;;;;;;10.56;100.00;96532.78;5041147;28;20069;-53
2021/10/22 08:45:58;;;;;;;11.35;2.63;;;;;;;10.35;100.00;96530.34;5024549;28;20089;-52
2021/10/22 08:48:29;;;;;;;7.50;2.00;;;;;;;9.95;100.00;96547.97;5048485;28;20076;-51
2021/10/22 08:50:58;;;;;;;9.30;2.40;;;;;;;9.94;100.00;96548.09;5029408;28;20072;-54
2021/10/22 08:53:27;;;;;;;8.88;2.10;;;;;;;10.36;100.00;96550.47;5024782;28;20408;-50
2021/10/22 08:55:57;;;;;;;11.10;2.50;;;;;;;10.60;100.00;96548.22;5038392;28;20076;-55
2021/10/22 08:58:25;;;;;;;6.30;2.00;;;;;;;10.69;100.00;96554.41;5025584;28;20064;-51
2021/10/22 09:00:54;;;;;;;11.13;2.60;;;;;;;10.93;100.00;96546.84;5017825;28;20085;-54
2021/10/22 09:03:23;;;;;;;6.15;2.28;;;;;;;11.46;100.00;96555.94;5052469;28;20083;-56
2021/10/22 09:06:00;;;;;;;8.50;2.28;;;;;;;11.16;100.00;96554.41;5047826;28;20068;-53
2021/10/22 09:08:33;;;;;;;9.13;2.42;;;;;;;11.34;100.00;96554.44;5030205;28;20088;-49
2021/10/22 09:11:02;;;;;;;7.30;2.33;;;;;;;11.68;100.00;96553.84;5037512;28;20465;-54
2021/10/22 09:13:31;;;;;;;6.88;2.47;;;;;;;11.62;100.00;96553.44;5024805;28;20484;-55
2021/10/22 09:16:01;;;;;;;;;;;;;;;11.33;100.00;96566.81;5022608;28;20112;-51
2021/10/22 09:18:30;;;;;;;11.30;2.38;;;;;;;10.72;100.00;96569.97;5024694;28;19975;-55
2021/10/22 09:21:02;;;;;;;8.45;2.22;;;;;;;11.27;100.00;96564.75;5021277;28;20088;-55
2021/10/22 09:23:32;;;;;;;13.55;2.67;;;;;;;11.64;100.00;96570.00;5039643;28;20468;-53
2021/10/22 09:26:15;;;;;;;9.30;2.58;;;;;;;11.46;100.00;96566.50;5035123;28;20080;-55
2021/10/22 09:28:44;;;;;;;10.40;2.22;;;;;;;11.43;100.00;96568.59;5038113;28;20088;-49
2021/10/22 09:31:13;;;;;;;6.82;2.38;;;;;;;11.20;100.00;96576.88;5047109;28;20061;-51
2021/10/22 09:34:00;;;;;;;9.20;2.30;;;;;;;11.65;100.00;96570.81;5027030;28;20088;-50
2021/10/22 09:36:33;;;;;;;5.75;2.40;;;;;;;11.72;100.00;96568.41;5016676;28;21288;-52
2021/10/22 09:39:07;;;;;;;9.38;2.38;;;;;;;11.52;100.00;96570.34;5022032;28;20553;-52
2021/10/22 09:41:37;;;;;;;11.05;2.95;;;;;;;12.07;100.00;96557.88;5026237;28;20224;-52
2021/10/22 09:44:20;;;;;;;6.35;2.20;;;;;;;11.59;100.00;96572.22;5040032;28;20095;-49
2021/10/22 09:46:49;;;;;;;8.38;2.58;;;;;;;11.97;100.00;96574.78;5036826;28;20079;-55
2021/10/22 09:49:25;;;;;;;5.75;2.50;;;;;;;11.76;100.00;96577.69;5034038;28;20061;-49
2021/10/22 09:51:56;;;;;;;7.05;2.35;;;;;;;11.43;100.00;96590.53;5044863;28;20555;-51
2021/10/22 09:54:29;;;;;;;9.57;2.50;;;;;;;12.21;100.00;96582.94;5045134;28;20293;-55
2021/10/22 09:56:59;;;;;;;11.13;2.90;;;;;;;11.91;100.00;96576.25;5039190;28;20069;-49
2021/10/22 09:59:27;;;;;;;9.70;2.45;;;;;;;11.86;100.00;96581.97;5027091;28;20071;-52
2021/10/22 10:01:57;;;;;;;9.93;2.47;;;;;;;11.74;100.00;96580.50;5035172;28;20080;-55
2021/10/22 10:04:27;;;;;;;7.18;3.00;;;;;;;12.15;100.00;96588.00;5044247;28;20065;-53
2021/10/22 10:07:08;;;;;;;5.07;2.25;;;;;;;12.72;100.00;96583.19;5045778;28;20092;-53
2021/10/22 10:09:39;;;;;;;7.65;2.60;;;;;;;12.41;100.00;96588.91;5051406;28;20084;-53
2021/10/22 10:12:08;;;;;;;6.95;2.25;;;;;;;12.41;100.00;96591.56;5049262;28;20072;-52
2021/10/22 10:14:37;;;;;;;5.40;2.08;;;;;;;12.63;100.00;96597.34;5034125;28;20169;-47
2021/10/22 10:17:06;;;;;;;6.25;2.22;;;;;;;12.87;100.00;96586.97;5034606;28;20064;-51
2021/10/22 10:19:37;;;;;;;7.45;2.10;;;;;;;12.05;100.00;96593.41;5032951;28;20061;-53
2021/10/22 10:22:09;;;;;;;5.35;2.30;;;;;;;12.12;100.00;96586.53;5021349;28;20116;-49
2021/10/22 10:24:39;;;;;;;8.25;2.50;;;;;;;12.41;100.00;96585.44;5023407;28;20093;-49
2021/10/22 10:27:10;;;;;;;5.68;1.77;;;;;;;11.62;100.00;96577.22;5020841;28;20080;-50
2021/10/22 10:29:40;;;;;;;7.10;2.25;;;;;;;11.62;100.00;96589.59;5042570;28;20075;-48
2021/10/22 10:32:10;;;;;;;6.57;2.65;;;;;;;11.83;100.00;96591.97;5042961;28;20080;-48
2021/10/22 10:34:40;;;;;;;10.68;2.58;;;;;;;12.01;100.00;96586.72;5030706;28;20085;-50
2021/10/22 10:37:38;;;;;;;6.68;1.95;;;;;;;11.83;100.00;96574.28;5017931;28;20096;-50
2021/10/22 10:40:14;;;;;;;6.38;2.22;;;;;;;12.23;100.00;96575.72;5026360;28;20485;-53
2021/10/22 10:42:45;;;;;;;5.32;1.70;;;;;;;11.91;100.00;96581.53;5023090;28;20563;-48
2021/10/22 10:45:43;;;;;;;4.60;1.55;;;;;;;12.68;97.71;96572.09;5021633;28;20654;-53
2021/10/22 10:48:17;;;;;;;3.83;1.52;;;;;;;12.11;94.18;96577.78;5048060;28;20076;-52
2021/10/22 10:50:51;;;;;;;7.53;1.73;;;;;;;12.09;86.98;96590.28;5041472;28;20079;-54
2021/10/22 10:53:34;;;;;;;5.20;1.80;;;;;;;11.65;100.00;96589.31;5034633;28;20076;-47
2021/10/22 10:56:04;;;;;;;5.68;1.90;;;;;;;12.51;100.00;96594.13;5041065;28;20485;-47
2021/10/22 10:58:42;;;;;;;5.82;1.95;;;;;;;11.67;100.00;96586.53;5045019;28;20527;-47
2021/10/22 11:01:24;;;;;;;8.45;1.98;;;;;;;12.40;100.00;96584.63;5047739;28;20081;-49
2021/10/22 11:03:53;;;;;;;7.63;1.95;;;;;;;12.27;100.00;96581.53;5029921;28;20088;-50
2021/10/22 11:06:36;;;;;;;8.20;2.00;;;;;;;12.68;100.00;96580.03;5021796;28;20446;-49
2021/10/22 11:09:06;;;;;;;9.20;1.98;;;;;;;11.96;94.41;96573.16;5040423;28;20061;-55
2021/10/22 11:11:41;;;;;;;5.47;1.60;;;;;;;11.76;96.86;96577.69;5044131;28;20064;-53
2021/10/22 11:14:23;;;;;;;6.80;1.73;;;;;;;11.91;100.00;96575.41;5040427;28;20560;-53
2021/10/22 11:16:54;;;;;;;11.02;1.83;;;;;;;11.42;100.00;96570.38;5044235;28;20083;-49
2021/10/22 11:19:26;;;;;;;8.52;1.85;;;;;;;12.03;98.28;96563.63;5036943;28;20061;-52
2021/10/22 11:21:57;;;;;;;5.22;1.92;;;;;;;12.62;100.00;96574.53;5036233;28;20084;-47
2021/10/22 11:24:30;;;;;;;7.10;2.10;;;;;;;12.72;88.90;96562.84;5034397;28;20606;-50
2021/10/22 11:27:05;;;;;;;8.30;2.17;;;;;;;12.46;97.52;96568.13;5047513;28;20065;-49
2021/10/22 11:29:34;;;;;;;7.45;2.00;;;;;;;12.66;98.62;96563.47;5041054;28;20071;-49
2021/10/22 11:32:10;;;;;;;6.80;1.77;;;;;;;12.05;92.54;96557.22;5034651;28;20079;-49
2021/10/22 11:34:40;;;;;;;4.45;2.13;;;;;;;12.07;95.16;96564.97;5008285;28;20085;-53
2021/10/22 11:37:12;;;;;;;6.18;1.98;;;;;;;11.96;93.39;96565.22;5016724;28;20069;-49
2021/10/22 11:39:42;;;;;;;7.38;1.98;;;;;;;12.10;97.12;96562.88;5025467;28;20088;-55
2021/10/22 11:42:13;;;;;;;10.35;2.20;;;;;;;12.03;98.50;96561.81;5023653;28;20072;-49
2021/10/22 11:44:46;;;;;;;5.82;1.90;;;;;;;12.32;98.97;96564.22;5042736;28;20071;-52